Time;durP1;ratioP1;P1;durP2;ratioP2;P2;SDS_P1;SDS_P2;PMS_P1;PMS_P2;Temp;Humidity;BMP_temperature;BMP_pressure;BME280_temperature;BME280_humidity;BME280_pressure;Samples;Min_cycle;Max_cycle;Signal;HPM_P1;HPM_P2
2022/07/31 00:00:48;;;;;;;4.40;3.50;;;17.00;99.90;;;;;;5052144;28;20286;-51
2022/07/31 00:03:16;;;;;;;4.82;3.67;;;17.00;99.90;;;;;;5052658;28;20326;-51
2022/07/31 00:05:44;;;;;;;5.45;3.80;;;17.00;99.90;;;;;;5052339;28;20202;-51
2022/07/31 00:08:14;;;;;;;4.22;3.50;;;17.00;99.90;;;;;;5051460;28;20626;-51
2022/07/31 00:10:42;;;;;;;5.18;3.55;;;17.00;99.90;;;;;;5052544;28;20213;-51
2022/07/31 00:13:10;;;;;;;5.05;3.10;;;17.00;99.90;;;;;;5052201;28;20809;-51
2022/07/31 00:15:38;;;;;;;6.75;3.35;;;17.00;99.90;;;;;;5052253;28;20710;-51
2022/07/31 00:18:08;;;;;;;6.82;3.50;;;17.00;99.90;;;;;;5051087;28;20584;-51
2022/07/31 00:20:36;;;;;;;5.72;3.95;;;17.00;99.90;;;;;;5037841;28;20206;-51
2022/07/31 00:23:04;;;;;;;4.95;3.20;;;17.00;99.90;;;;;;5051887;28;20920;-51
2022/07/31 00:25:32;;;;;;;4.97;3.15;;;17.00;99.90;;;;;;5058917;28;20286;-51
2022/07/31 00:28:00;;;;;;;3.45;3.08;;;17.00;99.90;;;;;;5064930;28;20225;-51
2022/07/31 00:30:28;;;;;;;4.72;3.00;;;17.00;99.90;;;;;;5065370;28;20205;-50
2022/07/31 00:32:56;;;;;;;5.38;3.10;;;17.10;99.90;;;;;;5067858;28;20206;-51
2022/07/31 00:35:26;;;;;;;5.03;3.35;;;17.10;99.90;;;;;;5072016;28;20224;-51
2022/07/31 00:37:54;;;;;;;3.40;3.10;;;17.10;99.90;;;;;;5071497;28;20225;-51
2022/07/31 00:40:47;;;;;;;5.47;3.25;;;17.20;99.90;;;;;;5071927;28;20205;-51
2022/07/31 00:43:17;;;;;;;4.68;3.22;;;17.20;99.90;;;;;;5071496;28;20213;-51
2022/07/31 00:45:45;;;;;;;4.32;3.00;;;17.20;99.90;;;;;;5071917;28;20205;-50
2022/07/31 00:48:18;;;;;;;5.13;3.53;;;17.20;99.90;;;;;;5071527;28;20866;-51
2022/07/31 00:50:49;;;;;;;4.20;3.35;;;17.20;99.90;;;;;;5071768;28;20209;-51
2022/07/31 00:53:17;;;;;;;4.85;3.35;;;17.20;99.90;;;;;;5071368;28;20581;-51
2022/07/31 00:55:45;;;;;;;5.18;3.30;;;17.10;99.90;;;;;;5071067;28;20232;-51
2022/07/31 00:58:19;;;;;;;4.07;3.30;;;17.10;99.90;;;;;;5071103;28;20228;-51
2022/07/31 01:00:47;;;;;;;3.60;3.00;;;17.20;99.90;;;;;;5071501;28;20282;-51
2022/07/31 01:03:17;;;;;;;4.43;2.95;;;17.20;99.90;;;;;;5071674;28;20209;-51
2022/07/31 01:05:45;;;;;;;4.15;2.78;;;17.20;99.90;;;;;;5056556;28;20201;-51
2022/07/31 01:08:15;;;;;;;4.55;2.92;;;17.20;99.90;;;;;;5070851;28;20228;-51
2022/07/31 01:10:54;;;;;;;5.38;3.10;;;17.20;99.90;;;;;;5071460;28;20262;-51
2022/07/31 01:13:31;;;;;;;3.38;3.08;;;17.10;99.90;;;;;;5071350;28;20240;-51
2022/07/31 01:16:01;;;;;;;3.17;2.80;;;17.10;99.90;;;;;;5070968;28;20312;-50
2022/07/31 01:18:34;;;;;;;4.80;3.00;;;17.00;99.90;;;;;;5070681;28;20611;-51
2022/07/31 01:21:06;;;;;;;4.75;3.40;;;17.00;99.90;;;;;;5071255;28;20197;-51
2022/07/31 01:24:12;;;;;;;3.10;2.80;;;17.00;99.90;;;;;;5070751;28;20269;-51
2022/07/31 01:26:48;;;;;;;3.30;3.00;;;17.00;99.90;;;;;;5070959;28;20715;-51
2022/07/31 01:29:24;;;;;;;4.40;2.80;;;17.00;99.90;;;;;;5069052;28;20270;-51
2022/07/31 01:31:58;;;;;;;3.33;3.03;;;17.00;99.90;;;;;;5071165;28;20204;-50
2022/07/31 01:34:33;;;;;;;3.17;2.85;;;17.00;99.90;;;;;;5070215;28;20673;-51
2022/07/31 01:37:08;;;;;;;4.68;2.90;;;17.10;99.90;;;;;;5069611;28;20217;-51
2022/07/31 01:39:41;;;;;;;5.25;3.00;;;17.10;99.90;;;;;;5070070;28;20661;-51
2022/07/31 01:42:13;;;;;;;2.90;2.70;;;17.00;99.90;;;;;;5070847;28;20262;-51
2022/07/31 01:44:45;;;;;;;3.55;2.70;;;17.10;99.90;;;;;;5070761;28;20209;-51
2022/07/31 01:47:19;;;;;;;4.43;2.90;;;17.00;99.90;;;;;;5070445;28;20208;-51
2022/07/31 01:49:50;;;;;;;3.55;2.80;;;17.00;99.90;;;;;;5070355;28;20231;-51
2022/07/31 01:52:19;;;;;;;3.28;2.97;;;16.90;99.90;;;;;;5090138;28;20207;-51
2022/07/31 01:54:48;;;;;;;3.65;2.83;;;16.90;99.90;;;;;;5090285;28;20231;-51
2022/07/31 01:57:18;;;;;;;4.95;3.40;;;16.90;99.90;;;;;;5090472;28;20240;-51
2022/07/31 01:59:50;;;;;;;5.75;3.33;;;16.90;99.90;;;;;;5090335;28;20204;-50
2022/07/31 02:02:22;;;;;;;3.38;3.08;;;16.80;99.90;;;;;;5090218;28;20211;-51
2022/07/31 02:04:51;;;;;;;3.83;3.50;;;16.80;99.90;;;;;;5079439;28;20599;-51
2022/07/31 02:07:21;;;;;;;3.92;2.95;;;16.80;99.90;;;;;;5089754;28;20224;-50
2022/07/31 02:09:50;;;;;;;6.72;3.00;;;16.80;99.90;;;;;;5090328;28;20754;-51
2022/07/31 02:12:27;;;;;;;7.47;3.08;;;16.70;99.90;;;;;;5090182;28;20583;-51
2022/07/31 02:15:04;;;;;;;4.30;3.22;;;16.80;99.90;;;;;;5089918;28;20587;-50
2022/07/31 02:17:33;;;;;;;7.45;3.45;;;16.80;99.90;;;;;;5088864;28;20310;-51
2022/07/31 02:20:03;;;;;;;7.65;3.42;;;16.80;99.90;;;;;;5089965;28;20204;-51
2022/07/31 02:22:31;;;;;;;3.85;3.38;;;16.70;99.90;;;;;;5062241;28;20204;-50
2022/07/31 02:24:59;;;;;;;4.47;3.15;;;16.70;99.90;;;;;;5088828;28;20212;-51
2022/07/31 02:27:29;;;;;;;4.57;3.08;;;16.70;99.90;;;;;;5089596;28;20220;-51
2022/07/31 02:30:19;;;;;;;3.53;2.97;;;16.70;99.90;;;;;;5089636;28;20216;-51
2022/07/31 02:32:48;;;;;;;3.40;3.10;;;16.70;99.90;;;;;;5088759;28;20212;-51
2022/07/31 02:35:18;;;;;;;4.05;3.05;;;16.60;99.90;;;;;;5090431;28;20726;-51
2022/07/31 02:37:51;;;;;;;5.35;2.97;;;16.60;99.90;;;;;;5089288;28;20251;-50
2022/07/31 02:40:20;;;;;;;3.45;2.95;;;16.60;99.90;;;;;;5090067;28;20735;-51
2022/07/31 02:42:49;;;;;;;4.13;2.75;;;16.40;99.90;;;;;;5089569;28;20578;-51
2022/07/31 02:45:20;;;;;;;3.45;3.15;;;16.40;99.90;;;;;;5089759;28;20208;-51
2022/07/31 02:47:48;;;;;;;4.47;2.80;;;16.40;99.90;;;;;;5088287;28;20271;-51
2022/07/31 02:50:18;;;;;;;4.30;2.92;;;16.40;99.90;;;;;;5089229;28;20201;-51
2022/07/31 02:52:47;;;;;;;3.88;2.70;;;16.30;99.90;;;;;;5089385;28;20579;-51
2022/07/31 02:55:17;;;;;;;4.85;3.22;;;16.20;99.90;;;;;;5089303;28;20242;-51
2022/07/31 02:57:46;;;;;;;3.67;2.60;;;16.20;99.90;;;;;;5088695;28;20286;-51
2022/07/31 03:00:22;;;;;;;4.05;2.60;;;16.10;99.90;;;;;;5089468;28;20221;-51
2022/07/31 03:02:50;;;;;;;2.72;2.53;;;16.10;99.90;;;;;;5089639;28;20691;-51
2022/07/31 03:05:19;;;;;;;4.78;2.80;;;16.00;99.90;;;;;;5078856;28;20693;-50
2022/07/31 03:07:47;;;;;;;3.65;2.80;;;16.00;99.90;;;;;;5088889;28;20243;-51
2022/07/31 03:10:15;;;;;;;3.70;2.97;;;16.00;99.90;;;;;;5089824;28;20277;-51
2022/07/31 03:12:47;;;;;;;5.40;3.13;;;15.90;99.90;;;;;;5088588;28;20237;-51
2022/07/31 03:15:19;;;;;;;5.73;2.80;;;15.90;99.90;;;;;;5089352;28;20691;-51
2022/07/31 03:17:49;;;;;;;3.10;2.78;;;15.80;99.90;;;;;;5089208;28;20290;-51
2022/07/31 03:20:17;;;;;;;4.57;3.15;;;15.70;99.90;;;;;;5089155;28;20208;-51
2022/07/31 03:22:46;;;;;;;4.60;3.30;;;15.70;99.90;;;;;;5089010;28;20204;-51
2022/07/31 03:25:14;;;;;;;5.15;3.30;;;15.70;99.90;;;;;;5089037;28;20207;-51
2022/07/31 03:27:50;;;;;;;4.78;3.08;;;15.60;99.90;;;;;;5082681;28;20282;-51
2022/07/31 03:30:25;;;;;;;4.13;2.90;;;15.60;99.90;;;;;;5086904;28;20726;-51
2022/07/31 03:32:53;;;;;;;3.53;2.90;;;15.50;99.90;;;;;;5093723;28;20200;-51
2022/07/31 03:35:22;;;;;;;3.20;2.90;;;15.50;99.90;;;;;;5093681;28;20342;-51
2022/07/31 03:37:50;;;;;;;4.90;2.80;;;15.50;99.90;;;;;;5092159;28;20716;-51
2022/07/31 03:40:19;;;;;;;3.67;2.73;;;15.50;99.90;;;;;;5093164;28;20212;-50
2022/07/31 03:42:48;;;;;;;5.22;2.80;;;15.50;99.90;;;;;;5092668;28;20684;-51
2022/07/31 03:45:17;;;;;;;4.13;2.90;;;15.60;99.90;;;;;;5093049;28;20278;-51
2022/07/31 03:47:47;;;;;;;3.97;3.20;;;15.50;99.90;;;;;;5092134;28;20228;-51
2022/07/31 03:50:16;;;;;;;4.18;2.88;;;15.40;99.90;;;;;;5092527;28;20224;-51
2022/07/31 03:52:46;;;;;;;4.07;3.20;;;15.40;99.90;;;;;;5092235;28;20216;-50
2022/07/31 03:55:14;;;;;;;4.87;3.00;;;15.40;99.90;;;;;;5092744;28;20212;-51
2022/07/31 03:57:44;;;;;;;4.63;2.83;;;15.30;99.90;;;;;;5092861;28;20232;-51
2022/07/31 04:00:16;;;;;;;3.95;2.65;;;15.30;99.90;;;;;;5092611;28;20204;-51
2022/07/31 04:02:46;;;;;;;4.43;3.03;;;15.20;99.90;;;;;;5092667;28;20743;-50
2022/07/31 04:05:15;;;;;;;5.53;3.33;;;15.20;99.90;;;;;;5081773;28;20291;-51
2022/07/31 04:07:43;;;;;;;4.60;3.30;;;15.30;99.90;;;;;;5092495;28;20647;-51
2022/07/31 04:10:11;;;;;;;3.23;2.90;;;15.30;99.90;;;;;;5092589;28;20201;-51
2022/07/31 04:12:39;;;;;;;5.00;2.90;;;15.30;99.90;;;;;;5092120;28;20661;-51
2022/07/31 04:15:07;;;;;;;6.17;2.77;;;15.40;99.90;;;;;;5092781;28;20262;-51
2022/07/31 04:17:36;;;;;;;3.83;3.00;;;15.40;99.90;;;;;;5091947;28;20236;-51
2022/07/31 04:20:06;;;;;;;4.43;3.00;;;15.40;99.90;;;;;;5092313;28;20258;-51
2022/07/31 04:22:35;;;;;;;2.85;2.58;;;15.50;99.90;;;;;;5091726;28;20204;-51
2022/07/31 04:25:04;;;;;;;2.85;2.60;;;15.50;99.90;;;;;;5092649;28;20287;-51
2022/07/31 04:27:32;;;;;;;6.85;3.10;;;15.60;99.90;;;;;;5086410;28;20834;-51
2022/07/31 04:30:00;;;;;;;4.38;3.17;;;15.70;99.90;;;;;;5062568;28;20205;-51
2022/07/31 04:32:29;;;;;;;5.30;3.65;;;16.10;99.90;;;;;;5069923;28;20212;-50
2022/07/31 04:34:57;;;;;;;3.15;2.90;;;16.20;99.90;;;;;;5091367;28;20200;-51
2022/07/31 04:37:27;;;;;;;4.43;2.80;;;16.60;99.90;;;;;;5091592;28;20278;-51
2022/07/31 04:39:55;;;;;;;5.85;3.05;;;17.00;99.90;;;;;;5091479;28;20204;-51
2022/07/31 04:42:23;;;;;;;4.00;2.80;;;17.40;99.90;;;;;;5090229;28;20285;-51
2022/07/31 04:44:51;;;;;;;4.60;2.47;;;17.90;99.90;;;;;;5060010;28;20204;-51
2022/07/31 04:47:21;;;;;;;4.90;3.15;;;18.20;99.90;;;;;;5051764;28;20319;-51
2022/07/31 04:49:49;;;;;;;2.90;2.33;;;18.50;99.90;;;;;;5054310;28;20212;-50
2022/07/31 04:52:17;;;;;;;3.30;2.97;;;19.10;99.90;;;;;;5055728;28;20660;-52
2022/07/31 04:54:46;;;;;;;4.57;2.83;;;19.60;99.90;;;;;;5057666;28;20268;-51
2022/07/31 04:57:14;;;;;;;4.13;2.80;;;19.50;99.90;;;;;;5055654;28;20737;-51
2022/07/31 04:59:48;;;;;;;5.30;2.80;;;19.50;99.90;;;;;;5050633;28;20232;-51
2022/07/31 05:02:28;;;;;;;5.32;2.53;;;19.20;99.90;;;;;;5053896;28;20225;-51
2022/07/31 05:04:56;;;;;;;4.55;2.72;;;19.70;99.90;;;;;;5053316;28;20268;-51
2022/07/31 05:07:26;;;;;;;3.30;3.00;;;19.50;99.90;;;;;;5054458;28;20218;-52
2022/07/31 05:09:58;;;;;;;4.68;2.90;;;19.00;99.90;;;;;;5057397;28;20205;-51
2022/07/31 05:12:26;;;;;;;4.90;2.60;;;18.60;99.90;;;;;;5052030;28;20205;-51
2022/07/31 05:14:54;;;;;;;4.03;2.83;;;18.40;99.90;;;;;;5052729;28;20202;-51
2022/07/31 05:17:23;;;;;;;3.85;2.90;;;18.30;99.90;;;;;;5052939;28;20225;-51
2022/07/31 05:19:51;;;;;;;5.32;3.28;;;18.20;99.90;;;;;;5063101;28;20710;-50
2022/07/31 05:22:19;;;;;;;5.05;3.00;;;18.10;99.90;;;;;;5059229;28;20205;-51
2022/07/31 05:24:47;;;;;;;3.42;2.67;;;18.10;99.90;;;;;;5064450;28;20717;-51
2022/07/31 05:27:16;;;;;;;3.78;2.58;;;18.10;99.90;;;;;;5052453;28;20256;-51
2022/07/31 05:29:44;;;;;;;6.22;2.55;;;18.10;99.90;;;;;;5070224;28;20706;-51
2022/07/31 05:32:12;;;;;;;3.13;2.65;;;18.20;99.90;;;;;;5058808;28;20209;-51
2022/07/31 05:34:41;;;;;;;5.85;2.60;;;18.20;99.90;;;;;;5088023;28;20303;-51
2022/07/31 05:37:10;;;;;;;3.35;2.70;;;18.30;99.90;;;;;;5090390;28;20212;-50
2022/07/31 05:39:38;;;;;;;3.20;2.45;;;18.30;99.90;;;;;;5090339;28;20575;-51
2022/07/31 05:42:06;;;;;;;7.40;2.67;;;18.20;99.90;;;;;;5090564;28;20208;-50
2022/07/31 05:44:36;;;;;;;2.75;2.50;;;18.30;99.90;;;;;;5089769;28;20214;-51
2022/07/31 05:47:07;;;;;;;2.78;2.50;;;18.40;99.90;;;;;;5089893;28;20208;-51
2022/07/31 05:49:35;;;;;;;5.15;2.65;;;18.60;99.90;;;;;;5090344;28;20258;-50
2022/07/31 05:52:03;;;;;;;4.43;2.78;;;18.70;99.90;;;;;;5090418;28;20229;-51
2022/07/31 05:54:32;;;;;;;5.25;3.00;;;19.10;99.90;;;;;;5089766;28;20215;-51
2022/07/31 05:57:00;;;;;;;4.07;3.20;;;19.30;99.90;;;;;;5076085;28;20282;-51
2022/07/31 05:59:28;;;;;;;4.15;2.67;;;19.80;99.90;;;;;;5089591;28;20224;-51
2022/07/31 06:01:58;;;;;;;3.45;3.00;;;20.20;99.90;;;;;;5075653;28;20204;-50
2022/07/31 06:04:26;;;;;;;2.97;2.63;;;20.40;99.90;;;;;;5082106;28;20288;-51
2022/07/31 06:06:54;;;;;;;4.32;2.90;;;20.60;99.90;;;;;;5087467;28;20749;-51
2022/07/31 06:09:22;;;;;;;3.50;2.78;;;21.10;99.90;;;;;;5089768;28;20713;-50
2022/07/31 06:11:50;;;;;;;3.70;2.70;;;21.30;99.90;;;;;;5090109;28;20208;-51
2022/07/31 06:14:18;;;;;;;6.50;3.30;;;21.30;99.90;;;;;;5081575;28;20278;-51
2022/07/31 06:16:48;;;;;;;4.22;2.50;;;21.30;99.90;;;;;;5090340;28;20208;-51
2022/07/31 06:19:19;;;;;;;4.57;2.75;;;21.20;99.90;;;;;;5089381;28;20228;-52
2022/07/31 06:21:51;;;;;;;3.92;2.90;;;21.30;99.90;;;;;;5089937;28;20200;-52
2022/07/31 06:24:21;;;;;;;7.07;2.50;;;21.20;99.90;;;;;;5088692;28;20299;-52
2022/07/31 06:26:49;;;;;;;3.22;2.92;;;21.00;99.90;;;;;;5089952;28;20692;-51
2022/07/31 06:29:17;;;;;;;5.47;3.13;;;20.90;99.90;;;;;;5089733;28;20220;-51
2022/07/31 06:31:45;;;;;;;3.65;2.92;;;20.90;99.90;;;;;;5090035;28;20270;-51
2022/07/31 06:34:13;;;;;;;5.43;2.90;;;20.80;99.90;;;;;;5089805;28;20731;-51
2022/07/31 06:36:48;;;;;;;4.18;2.70;;;20.80;99.90;;;;;;5072848;28;20197;-51
2022/07/31 06:39:16;;;;;;;3.20;2.90;;;20.70;99.90;;;;;;5067495;28;20221;-51
2022/07/31 06:41:45;;;;;;;6.30;2.78;;;20.70;99.90;;;;;;5068693;28;20332;-52
2022/07/31 06:44:14;;;;;;;4.30;2.97;;;20.70;99.90;;;;;;5057796;28;20205;-52
2022/07/31 06:46:43;;;;;;;3.65;3.15;;;20.90;99.90;;;;;;5061113;28;20295;-52
2022/07/31 06:49:16;;;;;;;3.13;2.72;;;21.10;99.90;;;;;;5065044;28;20224;-52
2022/07/31 06:51:45;;;;;;;3.63;2.83;;;21.10;99.90;;;;;;5066444;28;20251;-52
2022/07/31 06:54:14;;;;;;;4.80;2.78;;;21.40;99.90;;;;;;5066851;28;20935;-52
2022/07/31 06:56:43;;;;;;;5.57;2.70;;;21.40;99.90;;;;;;5067983;28;20205;-50
2022/07/31 06:59:11;;;;;;;4.55;3.10;;;21.50;99.90;;;;;;5067859;28;20775;-51
2022/07/31 07:01:39;;;;;;;5.68;2.90;;;21.50;99.90;;;;;;5067139;28;20629;-50
2022/07/31 07:04:08;;;;;;;3.30;2.58;;;21.40;99.90;;;;;;5068427;28;20212;-52
2022/07/31 07:06:36;;;;;;;4.05;2.47;;;21.50;99.90;;;;;;5067448;28;20231;-51
2022/07/31 07:09:04;;;;;;;3.08;2.75;;;21.50;99.90;;;;;;5070953;28;20648;-52
2022/07/31 07:11:33;;;;;;;3.65;2.72;;;21.60;99.90;;;;;;5067504;28;20258;-52
2022/07/31 07:14:01;;;;;;;3.80;2.65;;;21.80;99.90;;;;;;5067162;28;20258;-52
2022/07/31 07:16:29;;;;;;;4.93;2.33;;;22.10;99.90;;;;;;5067112;28;20216;-51
2022/07/31 07:18:58;;;;;;;3.38;2.45;;;22.50;99.90;;;;;;5066835;28;20220;-52
2022/07/31 07:21:26;;;;;;;2.78;2.30;;;22.80;99.90;;;;;;5067244;28;20596;-51
2022/07/31 07:23:54;;;;;;;2.47;2.00;;;23.10;99.90;;;;;;5067049;28;20209;-52
2022/07/31 07:26:22;;;;;;;5.80;2.47;;;22.90;99.90;;;;;;5063211;28;20224;-51
2022/07/31 07:28:51;;;;;;;3.75;2.35;;;23.10;99.90;;;;;;5066782;28;20279;-51
2022/07/31 07:31:19;;;;;;;4.55;2.22;;;23.80;99.90;;;;;;5064344;28;20736;-52
2022/07/31 07:33:50;;;;;;;6.75;2.30;;;23.90;99.90;;;;;;5067785;28;20201;-52
2022/07/31 07:36:18;;;;;;;3.80;2.35;;;23.70;99.90;;;;;;5065106;28;20225;-52
2022/07/31 07:38:52;;;;;;;5.53;2.70;;;23.50;99.90;;;;;;5056751;28;20278;-52
2022/07/31 07:41:23;;;;;;;3.72;2.60;;;24.20;99.90;;;;;;5064665;28;20205;-52
2022/07/31 07:43:53;;;;;;;3.78;2.42;;;24.50;99.90;;;;;;5066657;28;20302;-52
2022/07/31 07:46:22;;;;;;;3.40;2.33;;;24.30;99.90;;;;;;5070955;28;20654;-51
2022/07/31 07:48:50;;;;;;;3.53;2.40;;;24.10;99.90;;;;;;5071997;28;20224;-51
2022/07/31 07:51:19;;;;;;;5.85;2.72;;;24.00;99.90;;;;;;5064226;28;20204;-52
2022/07/31 07:53:47;;;;;;;4.32;2.60;;;24.00;99.90;;;;;;5067154;28;20247;-51
2022/07/31 07:56:16;;;;;;;4.40;2.90;;;23.80;99.90;;;;;;5067713;28;20221;-52
2022/07/31 07:58:44;;;;;;;3.80;2.75;;;23.70;99.90;;;;;;5069062;28;20310;-51
2022/07/31 08:01:14;;;;;;;4.47;3.05;;;23.70;99.90;;;;;;5070259;28;20576;-51
2022/07/31 08:03:42;;;;;;;5.25;3.15;;;23.60;99.90;;;;;;5070471;28;20235;-51
2022/07/31 08:06:19;;;;;;;4.85;3.00;;;23.60;99.90;;;;;;5069255;28;20204;-51
2022/07/31 08:08:47;;;;;;;3.50;2.90;;;23.50;99.90;;;;;;5069397;28;20248;-52
2022/07/31 08:11:15;;;;;;;6.28;2.95;;;23.50;99.90;;;;;;5067414;28;20209;-51
2022/07/31 08:13:45;;;;;;;5.75;3.15;;;23.50;99.90;;;;;;5065974;28;20776;-51
2022/07/31 08:16:19;;;;;;;6.07;3.03;;;23.40;99.90;;;;;;5066470;28;20207;-51
2022/07/31 08:18:47;;;;;;;5.65;3.38;;;23.50;99.90;;;;;;5071505;28;20221;-52
2022/07/31 08:21:16;;;;;;;5.38;3.10;;;23.50;99.90;;;;;;5069562;28;20295;-51
2022/07/31 08:23:44;;;;;;;4.95;2.97;;;23.50;99.90;;;;;;5067239;28;20724;-51
2022/07/31 08:26:12;;;;;;;4.57;3.33;;;23.50;99.90;;;;;;5068553;28;20666;-52
2022/07/31 08:28:41;;;;;;;5.07;3.30;;;23.50;99.90;;;;;;5068907;28;20236;-52
2022/07/31 08:31:19;;;;;;;6.57;3.53;;;23.60;99.90;;;;;;5070730;28;20193;-52
2022/07/31 08:33:47;;;;;;;5.05;2.95;;;23.90;99.90;;;;;;5070307;28;20224;-54
2022/07/31 08:36:15;;;;;;;3.67;2.97;;;24.10;99.90;;;;;;5076936;28;20200;-51
2022/07/31 08:38:43;;;;;;;4.43;3.50;;;24.30;99.90;;;;;;5071038;28;20287;-51
2022/07/31 08:41:13;;;;;;;5.22;3.33;;;24.30;99.90;;;;;;5076126;28;20256;-49
2022/07/31 08:43:41;;;;;;;6.25;3.28;;;24.20;99.90;;;;;;5071672;28;20263;-51
2022/07/31 08:46:33;;;;;;;7.45;3.42;;;24.10;99.90;;;;;;5077245;28;20696;-51
2022/07/31 08:49:02;;;;;;;4.70;3.47;;;24.10;99.90;;;;;;5071018;28;20289;-51
2022/07/31 08:51:34;;;;;;;5.13;3.30;;;24.20;99.90;;;;;;5074105;28;20247;-51
2022/07/31 08:54:24;;;;;;;3.60;3.30;;;24.40;99.90;;;;;;5065909;28;20676;-51
2022/07/31 08:56:53;;;;;;;5.63;3.47;;;24.50;99.90;;;;;;5074925;28;20607;-51
2022/07/31 08:59:22;;;;;;;4.80;3.50;;;24.50;99.90;;;;;;5071410;28;20639;-51
2022/07/31 09:01:55;;;;;;;5.53;3.53;;;24.70;99.90;;;;;;5093094;28;20726;-51
2022/07/31 09:04:23;;;;;;;4.85;3.33;;;25.00;99.90;;;;;;5092848;28;20257;-51
2022/07/31 09:06:52;;;;;;;5.88;3.60;;;25.40;99.90;;;;;;5093048;28;20253;-52
2022/07/31 09:09:20;;;;;;;3.95;3.35;;;25.70;99.90;;;;;;5091835;28;20232;-51
2022/07/31 09:11:49;;;;;;;5.90;3.60;;;25.90;99.90;;;;;;5095170;28;20226;-51
2022/07/31 09:14:26;;;;;;;3.65;3.30;;;25.80;99.90;;;;;;5093111;28;20258;-51
2022/07/31 09:16:56;;;;;;;3.65;3.30;;;25.50;99.90;;;;;;5091817;28;20196;-51
2022/07/31 09:19:36;;;;;;;3.88;3.30;;;25.30;99.90;;;;;;5093905;28;20285;-51
2022/07/31 09:22:23;;;;;;;7.97;3.60;;;25.00;99.90;;;;;;5090369;28;20672;-51
2022/07/31 09:24:52;;;;;;;4.03;3.63;;;24.80;99.90;;;;;;5094102;28;20208;-51
2022/07/31 09:27:27;;;;;;;4.80;3.65;;;24.70;99.90;;;;;;5090236;28;20254;-51
2022/07/31 09:29:57;;;;;;;5.30;3.72;;;24.50;99.90;;;;;;5089520;28;20204;-52
2022/07/31 09:32:26;;;;;;;6.88;4.03;;;24.50;99.90;;;;;;5087074;28;20231;-51
2022/07/31 09:34:54;;;;;;;6.80;3.90;;;24.50;99.90;;;;;;5084570;28;20208;-51
2022/07/31 09:37:27;;;;;;;3.83;3.53;;;24.80;99.90;;;;;;5084137;28;20232;-51
2022/07/31 09:39:56;;;;;;;4.53;3.38;;;25.00;99.90;;;;;;5087874;28;20204;-51
2022/07/31 09:42:36;;;;;;;4.50;3.40;;;25.30;99.90;;;;;;5088688;28;20228;-50
2022/07/31 09:45:17;;;;;;;5.40;3.50;;;25.50;99.90;;;;;;5088106;28;20196;-51
2022/07/31 09:47:46;;;;;;;4.18;3.45;;;25.60;99.90;;;;;;5089329;28;20285;-52
2022/07/31 09:50:23;;;;;;;5.80;3.53;;;25.50;99.90;;;;;;5095673;28;20265;-51
2022/07/31 09:52:58;;;;;;;5.70;3.70;;;25.50;99.90;;;;;;5109562;28;20203;-51
2022/07/31 09:55:26;;;;;;;4.30;3.72;;;25.50;99.90;;;;;;5095174;28;20203;-51
2022/07/31 09:57:56;;;;;;;5.82;3.42;;;25.60;99.90;;;;;;5074649;28;20257;-51
2022/07/31 10:00:25;;;;;;;4.30;3.47;;;25.70;99.90;;;;;;5083389;28;20276;-51
2022/07/31 10:02:56;;;;;;;6.07;3.50;;;25.70;99.90;;;;;;5088458;28;20200;-51
2022/07/31 10:05:26;;;;;;;4.45;3.22;;;25.60;99.90;;;;;;5085106;28;20250;-51
2022/07/31 10:07:55;;;;;;;6.57;3.63;;;25.60;99.90;;;;;;5086400;28;20255;-50
2022/07/31 10:10:24;;;;;;;4.85;3.80;;;25.60;99.90;;;;;;5089345;28;20254;-51
2022/07/31 10:12:55;;;;;;;5.22;3.42;;;25.70;99.90;;;;;;5088331;28;20208;-51
2022/07/31 10:15:25;;;;;;;8.93;3.67;;;25.60;99.90;;;;;;5089206;28;20208;-52
2022/07/31 10:17:55;;;;;;;5.35;3.33;;;25.60;99.90;;;;;;5085253;28;20232;-52
2022/07/31 10:20:24;;;;;;;4.70;3.50;;;25.70;99.90;;;;;;5081009;28;20205;-51
2022/07/31 10:22:56;;;;;;;5.03;3.40;;;25.80;99.90;;;;;;5081558;28;20208;-51
2022/07/31 10:25:27;;;;;;;4.43;3.40;;;25.90;99.90;;;;;;5088568;28;20215;-52
2022/07/31 10:27:56;;;;;;;5.45;3.40;;;25.90;99.90;;;;;;5077423;28;20290;-52
2022/07/31 10:30:25;;;;;;;4.82;3.45;;;26.10;99.90;;;;;;5087552;28;20204;-52
2022/07/31 10:32:58;;;;;;;7.80;3.67;;;26.10;99.90;;;;;;5083082;28;20295;-52
2022/07/31 10:35:26;;;;;;;5.80;3.35;;;25.90;99.90;;;;;;5085748;28;20227;-51
2022/07/31 10:38:06;;;;;;;4.28;3.25;;;26.10;99.90;;;;;;5090512;28;20216;-51
2022/07/31 10:40:41;;;;;;;3.97;3.10;;;26.10;99.90;;;;;;5087358;28;20203;-51
2022/07/31 10:43:19;;;;;;;4.75;3.28;;;26.10;99.90;;;;;;5089286;28;20203;-52
2022/07/31 10:45:49;;;;;;;12.52;9.55;;;26.20;99.90;;;;;;5089895;28;20207;-52
2022/07/31 10:48:19;;;;;;;14.45;12.18;;;26.30;99.90;;;;;;5094214;28;20223;-52
2022/07/31 10:50:48;;;;;;;6.28;4.68;;;26.50;99.90;;;;;;5091139;28;20208;-52
2022/07/31 10:53:18;;;;;;;4.47;3.28;;;26.50;99.90;;;;;;5092105;28;20264;-52
2022/07/31 10:55:46;;;;;;;3.92;3.00;;;26.60;99.90;;;;;;5082206;28;20236;-52
2022/07/31 10:58:18;;;;;;;5.68;3.25;;;26.60;99.90;;;;;;5074436;28;20616;-52
2022/07/31 11:00:47;;;;;;;2.95;2.70;;;26.80;99.90;;;;;;5088886;28;20622;-51
2022/07/31 11:03:18;;;;;;;6.05;2.90;;;26.90;99.90;;;;;;5087624;28;20234;-52
2022/07/31 11:05:54;;;;;;;3.65;2.70;;;27.00;99.90;;;;;;5088745;28;20208;-51
2022/07/31 11:08:41;;;;;;;4.03;2.95;;;27.10;99.90;;;;;;5086319;28;20235;-52
2022/07/31 11:11:10;;;;;;;5.10;2.78;;;27.10;99.90;;;;;;5088857;28;20212;-52
2022/07/31 11:13:49;;;;;;;6.70;3.15;;;27.30;99.90;;;;;;5087666;28;20208;-51
2022/07/31 11:16:19;;;;;;;2.90;2.70;;;27.50;99.40;;;;;;5088709;28;20196;-52
2022/07/31 11:18:58;;;;;;;4.68;2.70;;;27.70;99.90;;;;;;5085350;28;20236;-52
2022/07/31 11:21:31;;;;;;;3.15;2.88;;;28.00;99.90;;;;;;5088009;28;20967;-52
2022/07/31 11:24:14;;;;;;;3.45;2.88;;;28.20;99.90;;;;;;5087845;28;20212;-52
2022/07/31 11:26:48;;;;;;;3.35;2.72;;;28.00;99.00;;;;;;5088475;28;20731;-52
2022/07/31 11:29:26;;;;;;;3.20;2.70;;;27.90;99.40;;;;;;5088099;28;20236;-52
2022/07/31 11:32:16;;;;;;;4.65;2.90;;;28.00;99.80;;;;;;5088055;28;20294;-52
2022/07/31 11:34:56;;;;;;;3.47;2.90;;;27.90;99.50;;;;;;5087172;28;20203;-52
2022/07/31 11:37:25;;;;;;;2.88;2.58;;;27.80;99.90;;;;;;5083689;28;20232;-52
2022/07/31 11:40:14;;;;;;;5.57;3.25;;;27.80;99.30;;;;;;5087201;28;20240;-52
2022/07/31 11:42:44;;;;;;;3.33;2.72;;;27.90;99.90;;;;;;5087401;28;20250;-52
2022/07/31 11:45:14;;;;;;;3.42;2.70;;;27.90;99.00;;;;;;5088587;28;20239;-53
2022/07/31 11:47:45;;;;;;;3.88;2.92;;;27.90;99.90;;;;;;5085813;28;20316;-52
2022/07/31 11:50:40;;;;;;;5.72;2.80;;;28.00;99.60;;;;;;5086121;28;20293;-52
2022/07/31 11:53:09;;;;;;;4.25;3.00;;;27.90;99.00;;;;;;5091130;28;20973;-53
2022/07/31 11:55:53;;;;;;;6.60;2.88;;;28.00;99.00;;;;;;5091867;28;20208;-52
2022/07/31 11:58:22;;;;;;;3.95;2.60;;;27.90;98.90;;;;;;5092337;28;20220;-52
2022/07/31 12:00:52;;;;;;;6.68;3.00;;;28.00;99.40;;;;;;5091499;28;20208;-52
2022/07/31 12:03:23;;;;;;;2.95;2.70;;;27.90;98.50;;;;;;5091531;28;20216;-52
2022/07/31 12:05:53;;;;;;;3.17;2.67;;;27.80;98.60;;;;;;5098864;28;20273;-53
2022/07/31 12:08:23;;;;;;;6.20;2.88;;;27.80;99.50;;;;;;5093128;28;20224;-52
2022/07/31 12:10:53;;;;;;;3.17;2.88;;;27.80;99.10;;;;;;5095117;28;20614;-52
2022/07/31 12:13:22;;;;;;;5.03;2.78;;;27.80;98.70;;;;;;5094120;28;20200;-52
2022/07/31 12:15:55;;;;;;;3.90;2.60;;;27.90;99.90;;;;;;5095229;28;20289;-52
2022/07/31 12:18:23;;;;;;;3.63;2.85;;;28.10;99.40;;;;;;5093052;28;20240;-57
2022/07/31 12:20:56;;;;;;;4.88;3.05;;;28.10;98.60;;;;;;5089137;28;20705;-52
2022/07/31 12:23:25;;;;;;;4.15;2.85;;;28.10;98.80;;;;;;5088268;28;20693;-53
2022/07/31 12:26:10;;;;;;;3.72;2.70;;;28.10;99.00;;;;;;5084409;28;20209;-52
2022/07/31 12:28:38;;;;;;;4.18;2.90;;;28.10;99.80;;;;;;5092741;28;20285;-52
2022/07/31 12:31:06;;;;;;;3.22;2.88;;;28.10;99.00;;;;;;5091003;28;20709;-53
2022/07/31 12:33:43;;;;;;;4.45;3.17;;;28.00;99.10;;;;;;5088679;28;20245;-52
2022/07/31 12:36:16;;;;;;;3.90;2.90;;;28.00;99.60;;;;;;5090891;28;20208;-52
2022/07/31 12:38:46;;;;;;;4.00;2.85;;;28.00;99.50;;;;;;5093764;28;20224;-52
2022/07/31 12:41:16;;;;;;;4.25;2.90;;;28.10;99.70;;;;;;5092885;28;20673;-52
2022/07/31 12:43:44;;;;;;;3.03;2.72;;;28.00;99.00;;;;;;5091252;28;20753;-52
2022/07/31 12:46:23;;;;;;;3.20;2.90;;;28.00;99.70;;;;;;5090122;28;20200;-53
2022/07/31 12:48:51;;;;;;;5.78;2.78;;;28.20;99.90;;;;;;5088848;28;20237;-52
2022/07/31 12:51:21;;;;;;;5.00;2.97;;;28.20;98.70;;;;;;5083047;28;20279;-52
2022/07/31 12:54:10;;;;;;;4.75;2.92;;;28.30;98.40;;;;;;5075727;28;20214;-53
2022/07/31 12:56:39;;;;;;;4.85;3.28;;;28.40;98.80;;;;;;5079470;28;20205;-53
2022/07/31 12:59:08;;;;;;;5.80;2.97;;;28.60;98.70;;;;;;5087162;28;20292;-53
2022/07/31 13:01:37;;;;;;;3.60;3.00;;;28.70;98.30;;;;;;5092812;28;20208;-53
2022/07/31 13:04:05;;;;;;;5.03;2.90;;;28.80;98.40;;;;;;5092885;28;20224;-52